sensor_id;sensor_type;location;lat;lon;timestamp;P1;durP1;ratioP1;P2;durP2;ratioP2
12780;SDS011;6454;43.304;24.344;2023-01-08T00:01:03;5.93;;;4.07;;
12780;SDS011;6454;43.304;24.344;2023-01-08T00:03:30;5.30;;;3.73;;
12780;SDS011;6454;43.304;24.344;2023-01-08T00:05:59;6.67;;;4.07;;
12780;SDS011;6454;43.304;24.344;2023-01-08T00:08:27;6.90;;;3.93;;
12780;SDS011;6454;43.304;24.344;2023-01-08T00:10:54;7.33;;;4.07;;
12780;SDS011;6454;43.304;24.344;2023-01-08T00:13:21;5.83;;;3.70;;
12780;SDS011;6454;43.304;24.344;2023-01-08T00:15:47;6.77;;;4.10;;
12780;SDS011;6454;43.304;24.344;2023-01-08T00:18:16;4.90;;;3.63;;
12780;SDS011;6454;43.304;24.344;2023-01-08T00:20:43;7.13;;;3.97;;
12780;SDS011;6454;43.304;24.344;2023-01-08T00:23:11;5.73;;;4.10;;
12780;SDS011;6454;43.304;24.344;2023-01-08T00:25:38;9.47;;;4.10;;
12780;SDS011;6454;43.304;24.344;2023-01-08T00:28:04;4.27;;;3.73;;
12780;SDS011;6454;43.304;24.344;2023-01-08T00:30:31;6.07;;;3.37;;
12780;SDS011;6454;43.304;24.344;2023-01-08T00:32:58;5.30;;;3.67;;
12780;SDS011;6454;43.304;24.344;2023-01-08T00:35:26;4.93;;;3.97;;
12780;SDS011;6454;43.304;24.344;2023-01-08T00:37:53;5.50;;;3.13;;
12780;SDS011;6454;43.304;24.344;2023-01-08T00:40:20;4.00;;;3.40;;
12780;SDS011;6454;43.304;24.344;2023-01-08T00:42:47;5.07;;;3.43;;
12780;SDS011;6454;43.304;24.344;2023-01-08T00:45:13;5.37;;;3.73;;
12780;SDS011;6454;43.304;24.344;2023-01-08T00:47:40;4.23;;;3.27;;
12780;SDS011;6454;43.304;24.344;2023-01-08T00:50:07;4.33;;;3.67;;
12780;SDS011;6454;43.304;24.344;2023-01-08T00:52:36;5.90;;;3.67;;
12780;SDS011;6454;43.304;24.344;2023-01-08T00:55:04;4.67;;;3.60;;
12780;SDS011;6454;43.304;24.344;2023-01-08T00:57:32;5.23;;;3.80;;
12780;SDS011;6454;43.304;24.344;2023-01-08T00:59:59;5.33;;;3.47;;
12780;SDS011;6454;43.304;24.344;2023-01-08T01:02:27;4.73;;;3.47;;
12780;SDS011;6454;43.304;24.344;2023-01-08T01:04:53;6.10;;;3.57;;
12780;SDS011;6454;43.304;24.344;2023-01-08T01:07:20;4.00;;;3.00;;
12780;SDS011;6454;43.304;24.344;2023-01-08T01:09:48;6.53;;;3.97;;
12780;SDS011;6454;43.304;24.344;2023-01-08T01:12:15;5.43;;;3.60;;
12780;SDS011;6454;43.304;24.344;2023-01-08T01:14:42;5.07;;;3.40;;
12780;SDS011;6454;43.304;24.344;2023-01-08T01:17:09;4.13;;;3.30;;
12780;SDS011;6454;43.304;24.344;2023-01-08T01:19:36;3.60;;;3.30;;
12780;SDS011;6454;43.304;24.344;2023-01-08T01:22:03;9.00;;;3.77;;
12780;SDS011;6454;43.304;24.344;2023-01-08T01:24:30;7.17;;;3.97;;
12780;SDS011;6454;43.304;24.344;2023-01-08T01:26:58;4.30;;;3.13;;
12780;SDS011;6454;43.304;24.344;2023-01-08T01:29:25;4.80;;;3.73;;
12780;SDS011;6454;43.304;24.344;2023-01-08T01:31:52;4.70;;;3.60;;
12780;SDS011;6454;43.304;24.344;2023-01-08T01:34:19;3.90;;;3.30;;
12780;SDS011;6454;43.304;24.344;2023-01-08T01:36:45;3.97;;;2.97;;
12780;SDS011;6454;43.304;24.344;2023-01-08T01:39:12;4.30;;;3.37;;
12780;SDS011;6454;43.304;24.344;2023-01-08T01:41:40;4.23;;;3.47;;
12780;SDS011;6454;43.304;24.344;2023-01-08T01:47:05;6.60;;;4.30;;
12780;SDS011;6454;43.304;24.344;2023-01-08T01:49:52;6.30;;;3.47;;
12780;SDS011;6454;43.304;24.344;2023-01-08T01:52:23;3.93;;;3.00;;
12780;SDS011;6454;43.304;24.344;2023-01-08T01:54:54;4.63;;;3.20;;
12780;SDS011;6454;43.304;24.344;2023-01-08T01:57:22;4.37;;;3.07;;
12780;SDS011;6454;43.304;24.344;2023-01-08T01:59:51;3.73;;;3.10;;
12780;SDS011;6454;43.304;24.344;2023-01-08T02:02:20;6.30;;;2.97;;
12780;SDS011;6454;43.304;24.344;2023-01-08T02:04:47;2.97;;;2.67;;
12780;SDS011;6454;43.304;24.344;2023-01-08T02:07:14;5.13;;;3.10;;
12780;SDS011;6454;43.304;24.344;2023-01-08T02:09:46;5.30;;;3.13;;
12780;SDS011;6454;43.304;24.344;2023-01-08T02:12:18;4.93;;;3.00;;
12780;SDS011;6454;43.304;24.344;2023-01-08T02:14:55;6.30;;;3.00;;
12780;SDS011;6454;43.304;24.344;2023-01-08T02:17:28;3.50;;;2.83;;
12780;SDS011;6454;43.304;24.344;2023-01-08T02:20:02;3.00;;;2.50;;
12780;SDS011;6454;43.304;24.344;2023-01-08T02:22:39;4.57;;;2.90;;
12780;SDS011;6454;43.304;24.344;2023-01-08T02:25:16;3.03;;;2.70;;
12780;SDS011;6454;43.304;24.344;2023-01-08T02:27:49;4.83;;;3.03;;
12780;SDS011;6454;43.304;24.344;2023-01-08T02:30:19;3.63;;;2.50;;
12780;SDS011;6454;43.304;24.344;2023-01-08T02:32:46;3.00;;;2.60;;
12780;SDS011;6454;43.304;24.344;2023-01-08T02:35:12;4.57;;;2.70;;
12780;SDS011;6454;43.304;24.344;2023-01-08T02:37:39;5.37;;;2.67;;
12780;SDS011;6454;43.304;24.344;2023-01-08T02:40:13;3.07;;;2.77;;
12780;SDS011;6454;43.304;24.344;2023-01-08T02:42:44;3.53;;;2.63;;
12780;SDS011;6454;43.304;24.344;2023-01-08T02:45:22;3.27;;;2.70;;
12780;SDS011;6454;43.304;24.344;2023-01-08T02:47:53;4.73;;;2.90;;
12780;SDS011;6454;43.304;24.344;2023-01-08T02:50:25;6.10;;;2.80;;
12780;SDS011;6454;43.304;24.344;2023-01-08T02:52:58;4.10;;;3.10;;
12780;SDS011;6454;43.304;24.344;2023-01-08T02:55:28;3.80;;;2.60;;
12780;SDS011;6454;43.304;24.344;2023-01-08T02:57:57;5.37;;;3.10;;
12780;SDS011;6454;43.304;24.344;2023-01-08T03:00:26;3.70;;;2.83;;
12780;SDS011;6454;43.304;24.344;2023-01-08T03:02:56;4.07;;;2.90;;
12780;SDS011;6454;43.304;24.344;2023-01-08T03:05:31;5.17;;;2.80;;
12780;SDS011;6454;43.304;24.344;2023-01-08T03:07:59;6.03;;;3.03;;
12780;SDS011;6454;43.304;24.344;2023-01-08T03:10:27;4.17;;;2.90;;
12780;SDS011;6454;43.304;24.344;2023-01-08T03:12:57;5.50;;;3.10;;
12780;SDS011;6454;43.304;24.344;2023-01-08T03:15:31;5.87;;;2.90;;
12780;SDS011;6454;43.304;24.344;2023-01-08T03:18:03;3.37;;;2.77;;
12780;SDS011;6454;43.304;24.344;2023-01-08T03:20:35;6.80;;;3.20;;
12780;SDS011;6454;43.304;24.344;2023-01-08T03:23:04;4.30;;;2.70;;
12780;SDS011;6454;43.304;24.344;2023-01-08T03:25:33;3.20;;;2.60;;
12780;SDS011;6454;43.304;24.344;2023-01-08T03:28:02;4.30;;;2.77;;
12780;SDS011;6454;43.304;24.344;2023-01-08T03:30:37;5.17;;;3.10;;
12780;SDS011;6454;43.304;24.344;2023-01-08T03:33:06;3.87;;;3.00;;
12780;SDS011;6454;43.304;24.344;2023-01-08T03:35:36;4.50;;;3.00;;
12780;SDS011;6454;43.304;24.344;2023-01-08T03:38:05;4.70;;;2.87;;
12780;SDS011;6454;43.304;24.344;2023-01-08T03:40:38;5.07;;;3.30;;
12780;SDS011;6454;43.304;24.344;2023-01-08T03:43:09;5.37;;;3.17;;
12780;SDS011;6454;43.304;24.344;2023-01-08T03:45:37;5.80;;;3.70;;
12780;SDS011;6454;43.304;24.344;2023-01-08T03:48:10;3.70;;;3.10;;
12780;SDS011;6454;43.304;24.344;2023-01-08T03:50:38;3.73;;;3.20;;
12780;SDS011;6454;43.304;24.344;2023-01-08T03:53:06;4.40;;;3.13;;
12780;SDS011;6454;43.304;24.344;2023-01-08T03:55:33;5.10;;;3.43;;
12780;SDS011;6454;43.304;24.344;2023-01-08T03:58:00;5.83;;;3.60;;
12780;SDS011;6454;43.304;24.344;2023-01-08T04:00:27;4.77;;;3.57;;
12780;SDS011;6454;43.304;24.344;2023-01-08T04:02:55;4.20;;;3.33;;
12780;SDS011;6454;43.304;24.344;2023-01-08T04:05:22;6.43;;;3.50;;
12780;SDS011;6454;43.304;24.344;2023-01-08T04:07:49;4.90;;;3.07;;
12780;SDS011;6454;43.304;24.344;2023-01-08T04:10:16;4.57;;;3.17;;
12780;SDS011;6454;43.304;24.344;2023-01-08T04:12:43;3.93;;;2.93;;
12780;SDS011;6454;43.304;24.344;2023-01-08T04:15:10;4.30;;;3.47;;
12780;SDS011;6454;43.304;24.344;2023-01-08T04:17:37;3.20;;;2.90;;
12780;SDS011;6454;43.304;24.344;2023-01-08T04:20:06;3.70;;;3.00;;
12780;SDS011;6454;43.304;24.344;2023-01-08T04:22:33;5.77;;;3.70;;
12780;SDS011;6454;43.304;24.344;2023-01-08T04:25:00;4.30;;;3.20;;
12780;SDS011;6454;43.304;24.344;2023-01-08T04:27:27;6.23;;;3.50;;
12780;SDS011;6454;43.304;24.344;2023-01-08T04:29:54;5.10;;;3.37;;
12780;SDS011;6454;43.304;24.344;2023-01-08T04:32:20;5.47;;;3.50;;
12780;SDS011;6454;43.304;24.344;2023-01-08T04:34:47;3.83;;;3.17;;
12780;SDS011;6454;43.304;24.344;2023-01-08T04:37:15;5.20;;;3.60;;
12780;SDS011;6454;43.304;24.344;2023-01-08T04:39:42;3.47;;;3.00;;
12780;SDS011;6454;43.304;24.344;2023-01-08T04:42:09;3.93;;;3.17;;
12780;SDS011;6454;43.304;24.344;2023-01-08T04:44:36;6.20;;;3.50;;
12780;SDS011;6454;43.304;24.344;2023-01-08T04:47:03;6.60;;;4.83;;
12780;SDS011;6454;43.304;24.344;2023-01-08T04:49:29;7.90;;;6.23;;
12780;SDS011;6454;43.304;24.344;2023-01-08T04:51:56;5.10;;;3.53;;
12780;SDS011;6454;43.304;24.344;2023-01-08T04:54:24;6.87;;;3.70;;
12780;SDS011;6454;43.304;24.344;2023-01-08T04:56:51;6.07;;;3.03;;
12780;SDS011;6454;43.304;24.344;2023-01-08T04:59:18;6.20;;;3.33;;
12780;SDS011;6454;43.304;24.344;2023-01-08T05:01:45;5.80;;;3.80;;
12780;SDS011;6454;43.304;24.344;2023-01-08T05:04:12;5.20;;;3.90;;
12780;SDS011;6454;43.304;24.344;2023-01-08T05:06:39;4.67;;;3.13;;
12780;SDS011;6454;43.304;24.344;2023-01-08T05:09:05;4.83;;;3.03;;
12780;SDS011;6454;43.304;24.344;2023-01-08T05:11:33;4.27;;;3.00;;
12780;SDS011;6454;43.304;24.344;2023-01-08T05:14:01;4.83;;;2.87;;
12780;SDS011;6454;43.304;24.344;2023-01-08T05:16:28;5.73;;;3.67;;
12780;SDS011;6454;43.304;24.344;2023-01-08T05:18:56;3.70;;;3.00;;
12780;SDS011;6454;43.304;24.344;2023-01-08T05:21:23;4.70;;;3.43;;
12780;SDS011;6454;43.304;24.344;2023-01-08T05:23:49;3.70;;;2.97;;
12780;SDS011;6454;43.304;24.344;2023-01-08T05:26:16;3.23;;;2.53;;
12780;SDS011;6454;43.304;24.344;2023-01-08T05:28:45;5.03;;;2.83;;
12780;SDS011;6454;43.304;24.344;2023-01-08T05:31:12;4.53;;;3.00;;
12780;SDS011;6454;43.304;24.344;2023-01-08T05:33:39;3.03;;;2.73;;
12780;SDS011;6454;43.304;24.344;2023-01-08T05:36:07;3.80;;;2.90;;
12780;SDS011;6454;43.304;24.344;2023-01-08T05:38:35;4.17;;;3.07;;
12780;SDS011;6454;43.304;24.344;2023-01-08T05:41:03;5.60;;;2.90;;
12780;SDS011;6454;43.304;24.344;2023-01-08T05:43:30;4.10;;;2.70;;
12780;SDS011;6454;43.304;24.344;2023-01-08T05:45:59;3.23;;;2.83;;
12780;SDS011;6454;43.304;24.344;2023-01-08T05:48:27;5.93;;;2.87;;
12780;SDS011;6454;43.304;24.344;2023-01-08T05:50:56;3.63;;;2.70;;
12780;SDS011;6454;43.304;24.344;2023-01-08T05:53:23;5.23;;;2.90;;
12780;SDS011;6454;43.304;24.344;2023-01-08T05:55:50;4.23;;;2.70;;
12780;SDS011;6454;43.304;24.344;2023-01-08T05:58:17;3.27;;;2.43;;
12780;SDS011;6454;43.304;24.344;2023-01-08T06:00:45;5.67;;;3.03;;
12780;SDS011;6454;43.304;24.344;2023-01-08T06:03:13;3.23;;;2.47;;
12780;SDS011;6454;43.304;24.344;2023-01-08T06:05:40;3.20;;;2.30;;
12780;SDS011;6454;43.304;24.344;2023-01-08T06:08:07;2.87;;;2.23;;
12780;SDS011;6454;43.304;24.344;2023-01-08T06:10:36;4.27;;;2.60;;
12780;SDS011;6454;43.304;24.344;2023-01-08T06:13:05;3.17;;;2.13;;
12780;SDS011;6454;43.304;24.344;2023-01-08T06:15:32;4.33;;;2.63;;
12780;SDS011;6454;43.304;24.344;2023-01-08T06:18:00;3.13;;;2.63;;
12780;SDS011;6454;43.304;24.344;2023-01-08T06:20:29;2.80;;;2.30;;
12780;SDS011;6454;43.304;24.344;2023-01-08T06:22:56;4.37;;;2.67;;
12780;SDS011;6454;43.304;24.344;2023-01-08T06:25:22;5.13;;;2.90;;
12780;SDS011;6454;43.304;24.344;2023-01-08T06:27:50;4.83;;;2.57;;
12780;SDS011;6454;43.304;24.344;2023-01-08T06:30:17;2.93;;;2.30;;
12780;SDS011;6454;43.304;24.344;2023-01-08T06:32:44;3.63;;;2.50;;
12780;SDS011;6454;43.304;24.344;2023-01-08T06:35:10;2.73;;;2.40;;
12780;SDS011;6454;43.304;24.344;2023-01-08T06:37:39;3.80;;;3.00;;
12780;SDS011;6454;43.304;24.344;2023-01-08T06:40:06;3.53;;;2.40;;
12780;SDS011;6454;43.304;24.344;2023-01-08T06:42:33;7.33;;;3.00;;
12780;SDS011;6454;43.304;24.344;2023-01-08T06:45:00;3.37;;;2.67;;
12780;SDS011;6454;43.304;24.344;2023-01-08T06:47:27;8.23;;;4.40;;
12780;SDS011;6454;43.304;24.344;2023-01-08T06:49:54;5.70;;;4.27;;
12780;SDS011;6454;43.304;24.344;2023-01-08T06:52:20;3.43;;;3.07;;
12780;SDS011;6454;43.304;24.344;2023-01-08T06:54:48;3.40;;;2.63;;
12780;SDS011;6454;43.304;24.344;2023-01-08T06:57:15;3.57;;;2.77;;
12780;SDS011;6454;43.304;24.344;2023-01-08T06:59:42;4.77;;;3.10;;
12780;SDS011;6454;43.304;24.344;2023-01-08T07:02:09;4.30;;;2.83;;
12780;SDS011;6454;43.304;24.344;2023-01-08T07:04:39;5.40;;;3.47;;
12780;SDS011;6454;43.304;24.344;2023-01-08T07:07:06;3.63;;;3.30;;
12780;SDS011;6454;43.304;24.344;2023-01-08T07:09:33;8.90;;;4.67;;
12780;SDS011;6454;43.304;24.344;2023-01-08T07:12:02;7.37;;;5.43;;
12780;SDS011;6454;43.304;24.344;2023-01-08T07:14:29;6.07;;;4.33;;
12780;SDS011;6454;43.304;24.344;2023-01-08T07:16:55;9.40;;;4.17;;
12780;SDS011;6454;43.304;24.344;2023-01-08T07:19:22;5.87;;;3.97;;
12780;SDS011;6454;43.304;24.344;2023-01-08T07:21:49;6.37;;;4.13;;
12780;SDS011;6454;43.304;24.344;2023-01-08T07:24:15;6.27;;;4.43;;
12780;SDS011;6454;43.304;24.344;2023-01-08T07:26:42;8.37;;;4.57;;
12780;SDS011;6454;43.304;24.344;2023-01-08T07:29:10;8.30;;;5.47;;
12780;SDS011;6454;43.304;24.344;2023-01-08T07:31:37;8.83;;;6.10;;
12780;SDS011;6454;43.304;24.344;2023-01-08T07:34:04;10.90;;;7.10;;
12780;SDS011;6454;43.304;24.344;2023-01-08T07:36:31;8.83;;;6.50;;
12780;SDS011;6454;43.304;24.344;2023-01-08T07:38:58;11.93;;;6.97;;
12780;SDS011;6454;43.304;24.344;2023-01-08T07:41:25;9.73;;;6.37;;
12780;SDS011;6454;43.304;24.344;2023-01-08T07:43:52;8.90;;;5.80;;
12780;SDS011;6454;43.304;24.344;2023-01-08T07:46:20;7.17;;;5.87;;
12780;SDS011;6454;43.304;24.344;2023-01-08T07:48:47;8.67;;;6.13;;
12780;SDS011;6454;43.304;24.344;2023-01-08T07:51:14;9.77;;;6.57;;
12780;SDS011;6454;43.304;24.344;2023-01-08T07:53:41;8.33;;;6.53;;
12780;SDS011;6454;43.304;24.344;2023-01-08T07:56:08;10.07;;;6.67;;
12780;SDS011;6454;43.304;24.344;2023-01-08T07:58:36;10.70;;;6.70;;
12780;SDS011;6454;43.304;24.344;2023-01-08T08:01:03;13.30;;;8.97;;
12780;SDS011;6454;43.304;24.344;2023-01-08T08:03:34;16.37;;;9.13;;
12780;SDS011;6454;43.304;24.344;2023-01-08T08:06:01;13.07;;;8.83;;
12780;SDS011;6454;43.304;24.344;2023-01-08T08:08:28;9.67;;;7.03;;
12780;SDS011;6454;43.304;24.344;2023-01-08T08:10:54;12.53;;;7.47;;
12780;SDS011;6454;43.304;24.344;2023-01-08T08:13:21;8.63;;;6.50;;
12780;SDS011;6454;43.304;24.344;2023-01-08T08:15:48;8.77;;;5.70;;
12780;SDS011;6454;43.304;24.344;2023-01-08T08:18:16;6.47;;;4.30;;
12780;SDS011;6454;43.304;24.344;2023-01-08T08:20:44;7.17;;;4.43;;
12780;SDS011;6454;43.304;24.344;2023-01-08T08:23:11;5.90;;;3.60;;
12780;SDS011;6454;43.304;24.344;2023-01-08T08:25:39;5.47;;;3.80;;
12780;SDS011;6454;43.304;24.344;2023-01-08T08:28:08;4.80;;;3.90;;
12780;SDS011;6454;43.304;24.344;2023-01-08T08:30:36;6.07;;;4.20;;
12780;SDS011;6454;43.304;24.344;2023-01-08T08:33:04;5.87;;;4.30;;
12780;SDS011;6454;43.304;24.344;2023-01-08T08:35:32;5.77;;;4.57;;
12780;SDS011;6454;43.304;24.344;2023-01-08T08:38:01;5.83;;;4.60;;
12780;SDS011;6454;43.304;24.344;2023-01-08T08:40:28;6.63;;;4.70;;
12780;SDS011;6454;43.304;24.344;2023-01-08T08:42:55;6.27;;;4.43;;
12780;SDS011;6454;43.304;24.344;2023-01-08T08:45:22;10.20;;;6.40;;
12780;SDS011;6454;43.304;24.344;2023-01-08T08:47:49;10.10;;;7.00;;
12780;SDS011;6454;43.304;24.344;2023-01-08T08:50:17;9.77;;;7.77;;
12780;SDS011;6454;43.304;24.344;2023-01-08T08:52:44;11.37;;;8.60;;
12780;SDS011;6454;43.304;24.344;2023-01-08T08:55:12;14.90;;;9.90;;
12780;SDS011;6454;43.304;24.344;2023-01-08T08:57:41;18.13;;;10.87;;
12780;SDS011;6454;43.304;24.344;2023-01-08T09:00:09;14.57;;;9.73;;
12780;SDS011;6454;43.304;24.344;2023-01-08T09:02:36;15.33;;;10.53;;
12780;SDS011;6454;43.304;24.344;2023-01-08T09:05:03;13.30;;;10.67;;
12780;SDS011;6454;43.304;24.344;2023-01-08T09:07:30;16.53;;;10.33;;
12780;SDS011;6454;43.304;24.344;2023-01-08T09:09:57;15.27;;;10.30;;
12780;SDS011;6454;43.304;24.344;2023-01-08T09:12:26;16.90;;;10.50;;
12780;SDS011;6454;43.304;24.344;2023-01-08T09:14:52;16.87;;;11.80;;
12780;SDS011;6454;43.304;24.344;2023-01-08T09:17:21;13.93;;;9.57;;
12780;SDS011;6454;43.304;24.344;2023-01-08T09:19:49;12.80;;;9.20;;
12780;SDS011;6454;43.304;24.344;2023-01-08T09:22:16;13.03;;;9.93;;
12780;SDS011;6454;43.304;24.344;2023-01-08T09:24:42;15.37;;;11.10;;
12780;SDS011;6454;43.304;24.344;2023-01-08T09:27:09;13.40;;;9.90;;
12780;SDS011;6454;43.304;24.344;2023-01-08T09:29:37;15.17;;;10.73;;
12780;SDS011;6454;43.304;24.344;2023-01-08T09:32:04;14.30;;;10.73;;
12780;SDS011;6454;43.304;24.344;2023-01-08T09:34:32;14.40;;;11.47;;
12780;SDS011;6454;43.304;24.344;2023-01-08T09:37:00;17.47;;;12.00;;
12780;SDS011;6454;43.304;24.344;2023-01-08T09:39:27;17.37;;;12.27;;
12780;SDS011;6454;43.304;24.344;2023-01-08T09:41:53;15.47;;;11.83;;
12780;SDS011;6454;43.304;24.344;2023-01-08T09:44:23;16.57;;;11.50;;
12780;SDS011;6454;43.304;24.344;2023-01-08T09:46:56;16.77;;;11.37;;
12780;SDS011;6454;43.304;24.344;2023-01-08T09:49:25;15.63;;;11.33;;
12780;SDS011;6454;43.304;24.344;2023-01-08T09:52:02;15.43;;;11.37;;
12780;SDS011;6454;43.304;24.344;2023-01-08T09:54:29;17.03;;;13.17;;
12780;SDS011;6454;43.304;24.344;2023-01-08T09:56:57;17.80;;;13.20;;
12780;SDS011;6454;43.304;24.344;2023-01-08T09:59:24;18.27;;;13.17;;
12780;SDS011;6454;43.304;24.344;2023-01-08T10:01:52;15.47;;;12.20;;
12780;SDS011;6454;43.304;24.344;2023-01-08T10:04:21;16.23;;;12.80;;
12780;SDS011;6454;43.304;24.344;2023-01-08T10:06:51;18.70;;;13.10;;
12780;SDS011;6454;43.304;24.344;2023-01-08T10:09:22;17.27;;;12.17;;
12780;SDS011;6454;43.304;24.344;2023-01-08T10:11:52;19.33;;;12.63;;
12780;SDS011;6454;43.304;24.344;2023-01-08T10:14:22;17.23;;;13.47;;
12780;SDS011;6454;43.304;24.344;2023-01-08T10:16:52;18.20;;;13.63;;
12780;SDS011;6454;43.304;24.344;2023-01-08T10:19:24;20.10;;;14.10;;
12780;SDS011;6454;43.304;24.344;2023-01-08T10:21:51;21.27;;;14.90;;
12780;SDS011;6454;43.304;24.344;2023-01-08T10:24:29;25.03;;;16.27;;
12780;SDS011;6454;43.304;24.344;2023-01-08T10:27:04;20.57;;;15.03;;
12780;SDS011;6454;43.304;24.344;2023-01-08T10:29:32;24.00;;;15.63;;
12780;SDS011;6454;43.304;24.344;2023-01-08T10:32:03;25.97;;;15.43;;
12780;SDS011;6454;43.304;24.344;2023-01-08T10:34:40;24.40;;;16.00;;
12780;SDS011;6454;43.304;24.344;2023-01-08T10:37:14;23.57;;;16.50;;
12780;SDS011;6454;43.304;24.344;2023-01-08T10:39:44;23.83;;;16.97;;
12780;SDS011;6454;43.304;24.344;2023-01-08T10:42:12;23.70;;;17.43;;
12780;SDS011;6454;43.304;24.344;2023-01-08T10:44:45;24.07;;;16.87;;
12780;SDS011;6454;43.304;24.344;2023-01-08T10:47:18;22.00;;;16.50;;
12780;SDS011;6454;43.304;24.344;2023-01-08T10:49:46;23.17;;;17.43;;
12780;SDS011;6454;43.304;24.344;2023-01-08T10:52:23;23.10;;;16.80;;
12780;SDS011;6454;43.304;24.344;2023-01-08T10:54:53;26.50;;;16.93;;
12780;SDS011;6454;43.304;24.344;2023-01-08T10:57:22;25.37;;;19.00;;
12780;SDS011;6454;43.304;24.344;2023-01-08T10:59:51;23.50;;;17.87;;
12780;SDS011;6454;43.304;24.344;2023-01-08T11:02:23;26.57;;;18.13;;
12780;SDS011;6454;43.304;24.344;2023-01-08T11:05:00;26.27;;;18.47;;
12780;SDS011;6454;43.304;24.344;2023-01-08T11:07:29;25.50;;;17.87;;
12780;SDS011;6454;43.304;24.344;2023-01-08T11:09:59;23.77;;;17.60;;
12780;SDS011;6454;43.304;24.344;2023-01-08T11:12:32;28.97;;;19.97;;
12780;SDS011;6454;43.304;24.344;2023-01-08T11:15:01;35.37;;;21.07;;
12780;SDS011;6454;43.304;24.344;2023-01-08T11:17:28;43.73;;;24.87;;
12780;SDS011;6454;43.304;24.344;2023-01-08T11:20:07;36.63;;;23.20;;
12780;SDS011;6454;43.304;24.344;2023-01-08T11:22:44;33.43;;;20.37;;
12780;SDS011;6454;43.304;24.344;2023-01-08T11:25:11;25.07;;;17.73;;
12780;SDS011;6454;43.304;24.344;2023-01-08T11:27:40;26.10;;;18.47;;
12780;SDS011;6454;43.304;24.344;2023-01-08T11:30:10;25.27;;;18.50;;
12780;SDS011;6454;43.304;24.344;2023-01-08T11:32:40;26.43;;;18.70;;
12780;SDS011;6454;43.304;24.344;2023-01-08T11:35:14;28.30;;;19.40;;
12780;SDS011;6454;43.304;24.344;2023-01-08T11:37:45;26.73;;;19.63;;
12780;SDS011;6454;43.304;24.344;2023-01-08T11:40:16;25.60;;;19.63;;
12780;SDS011;6454;43.304;24.344;2023-01-08T11:42:54;27.70;;;19.50;;
12780;SDS011;6454;43.304;24.344;2023-01-08T11:45:36;32.33;;;20.93;;
12780;SDS011;6454;43.304;24.344;2023-01-08T11:48:25;30.80;;;21.20;;
12780;SDS011;6454;43.304;24.344;2023-01-08T11:54:12;35.40;;;21.03;;
12780;SDS011;6454;43.304;24.344;2023-01-08T11:56:52;29.53;;;20.13;;
12780;SDS011;6454;43.304;24.344;2023-01-08T11:59:32;29.87;;;20.87;;
12780;SDS011;6454;43.304;24.344;2023-01-08T12:02:12;30.23;;;21.10;;
12780;SDS011;6454;43.304;24.344;2023-01-08T12:04:55;31.43;;;20.73;;
12780;SDS011;6454;43.304;24.344;2023-01-08T12:07:37;28.63;;;20.47;;
12780;SDS011;6454;43.304;24.344;2023-01-08T12:10:16;29.50;;;21.37;;
12780;SDS011;6454;43.304;24.344;2023-01-08T12:12:49;25.73;;;19.57;;
12780;SDS011;6454;43.304;24.344;2023-01-08T12:15:26;29.33;;;20.17;;
12780;SDS011;6454;43.304;24.344;2023-01-08T12:18:13;30.33;;;21.20;;
12780;SDS011;6454;43.304;24.344;2023-01-08T12:20:52;27.80;;;19.03;;
12780;SDS011;6454;43.304;24.344;2023-01-08T12:23:29;29.43;;;20.63;;
12780;SDS011;6454;43.304;24.344;2023-01-08T12:26:17;32.37;;;21.97;;
12780;SDS011;6454;43.304;24.344;2023-01-08T12:31:51;34.80;;;24.20;;
12780;SDS011;6454;43.304;24.344;2023-01-08T12:35:01;30.73;;;21.37;;
12780;SDS011;6454;43.304;24.344;2023-01-08T12:37:35;28.73;;;19.93;;
12780;SDS011;6454;43.304;24.344;2023-01-08T12:40:12;30.00;;;20.17;;
12780;SDS011;6454;43.304;24.344;2023-01-08T12:42:43;26.43;;;19.27;;
12780;SDS011;6454;43.304;24.344;2023-01-08T12:45:15;36.60;;;24.57;;
12780;SDS011;6454;43.304;24.344;2023-01-08T12:47:47;31.33;;;21.80;;
12780;SDS011;6454;43.304;24.344;2023-01-08T12:50:20;35.03;;;22.47;;
12780;SDS011;6454;43.304;24.344;2023-01-08T12:52:54;30.03;;;20.27;;
12780;SDS011;6454;43.304;24.344;2023-01-08T12:55:30;35.53;;;26.33;;
12780;SDS011;6454;43.304;24.344;2023-01-08T12:58:20;28.40;;;19.67;;
12780;SDS011;6454;43.304;24.344;2023-01-08T13:00:55;30.60;;;21.20;;
12780;SDS011;6454;43.304;24.344;2023-01-08T13:03:31;27.80;;;19.43;;
12780;SDS011;6454;43.304;24.344;2023-01-08T13:06:06;28.93;;;20.90;;
12780;SDS011;6454;43.304;24.344;2023-01-08T13:08:35;27.57;;;19.67;;
12780;SDS011;6454;43.304;24.344;2023-01-08T13:11:05;27.47;;;20.30;;
12780;SDS011;6454;43.304;24.344;2023-01-08T13:13:34;32.80;;;21.90;;
12780;SDS011;6454;43.304;24.344;2023-01-08T13:16:07;33.40;;;21.10;;
12780;SDS011;6454;43.304;24.344;2023-01-08T13:18:50;26.10;;;18.63;;
12780;SDS011;6454;43.304;24.344;2023-01-08T13:21:25;27.47;;;19.10;;
12780;SDS011;6454;43.304;24.344;2023-01-08T13:23:59;26.90;;;19.07;;
12780;SDS011;6454;43.304;24.344;2023-01-08T13:26:29;27.87;;;18.87;;
12780;SDS011;6454;43.304;24.344;2023-01-08T13:29:05;29.53;;;20.20;;
12780;SDS011;6454;43.304;24.344;2023-01-08T13:31:38;31.73;;;20.03;;
12780;SDS011;6454;43.304;24.344;2023-01-08T13:34:17;31.70;;;21.93;;
12780;SDS011;6454;43.304;24.344;2023-01-08T13:36:54;26.33;;;19.83;;
12780;SDS011;6454;43.304;24.344;2023-01-08T13:39:22;25.53;;;18.83;;
12780;SDS011;6454;43.304;24.344;2023-01-08T13:41:58;26.97;;;19.23;;
12780;SDS011;6454;43.304;24.344;2023-01-08T13:44:28;28.07;;;19.33;;
12780;SDS011;6454;43.304;24.344;2023-01-08T13:46:59;26.50;;;19.20;;
12780;SDS011;6454;43.304;24.344;2023-01-08T13:49:28;30.07;;;19.57;;
12780;SDS011;6454;43.304;24.344;2023-01-08T13:52:00;26.97;;;19.03;;
12780;SDS011;6454;43.304;24.344;2023-01-08T13:54:30;30.83;;;20.27;;
12780;SDS011;6454;43.304;24.344;2023-01-08T13:57:10;27.60;;;19.83;;
12780;SDS011;6454;43.304;24.344;2023-01-08T13:59:39;31.47;;;20.47;;
12780;SDS011;6454;43.304;24.344;2023-01-08T14:04:58;29.67;;;19.13;;
12780;SDS011;6454;43.304;24.344;2023-01-08T14:07:26;30.37;;;20.37;;
12780;SDS011;6454;43.304;24.344;2023-01-08T14:10:04;31.80;;;19.57;;
12780;SDS011;6454;43.304;24.344;2023-01-08T14:12:33;28.63;;;18.90;;
12780;SDS011;6454;43.304;24.344;2023-01-08T14:15:00;29.77;;;20.20;;
12780;SDS011;6454;43.304;24.344;2023-01-08T14:17:28;30.63;;;20.63;;
12780;SDS011;6454;43.304;24.344;2023-01-08T14:19:57;33.50;;;21.10;;
12780;SDS011;6454;43.304;24.344;2023-01-08T14:22:25;35.03;;;23.87;;
12780;SDS011;6454;43.304;24.344;2023-01-08T14:24:56;40.17;;;25.83;;
12780;SDS011;6454;43.304;24.344;2023-01-08T14:27:27;35.23;;;22.67;;
12780;SDS011;6454;43.304;24.344;2023-01-08T14:29:57;29.33;;;19.67;;
12780;SDS011;6454;43.304;24.344;2023-01-08T14:32:24;28.53;;;19.07;;
12780;SDS011;6454;43.304;24.344;2023-01-08T14:34:53;30.07;;;20.07;;
12780;SDS011;6454;43.304;24.344;2023-01-08T14:37:21;30.43;;;20.10;;
12780;SDS011;6454;43.304;24.344;2023-01-08T14:39:49;32.53;;;20.77;;
12780;SDS011;6454;43.304;24.344;2023-01-08T14:42:17;29.77;;;20.00;;
12780;SDS011;6454;43.304;24.344;2023-01-08T14:45:06;31.37;;;20.10;;
12780;SDS011;6454;43.304;24.344;2023-01-08T14:47:41;33.60;;;21.87;;
12780;SDS011;6454;43.304;24.344;2023-01-08T14:50:15;33.27;;;22.53;;
12780;SDS011;6454;43.304;24.344;2023-01-08T14:52:44;33.47;;;20.93;;
12780;SDS011;6454;43.304;24.344;2023-01-08T14:55:12;36.20;;;22.97;;
12780;SDS011;6454;43.304;24.344;2023-01-08T14:57:43;64.37;;;38.87;;
12780;SDS011;6454;43.304;24.344;2023-01-08T15:00:16;66.97;;;37.40;;
12780;SDS011;6454;43.304;24.344;2023-01-08T15:02:45;45.70;;;27.03;;